Airfield :
LOGIN :

Register | Disclaimer

   EN    FR    IT 

 










Legend :    VFR   Marginal VFR   IFR   Intensive IFR   Very Intensive IFR
Visi :
Ceiling :
>= 8 km
>= 3000ft
5 to 8 km
1000 to 3000 ft
1500m to 5 km
500 to 1000 ft
800 to 1500m
200 to 500 ft
< 800m
< 200 ft
Symbols :   Thunderstorms  Fog  Heavy snow  Heavy precipitations  Wind > 20 kt
SIGMETs :     Misc.  Thunderstorms  Icing  Turbulence  Mountain Waves  Volcanic Ashes






- Airport Elevation : 299 ft
- IATA code : EDM


LFRI - La Roche Sur Yon - Les Ajoncs

CURRENT METAR :
  • 281130Z AUTO 24010KT 200V270 9999 FEW018/// SCT039/// BKN048/// ///CB 13/11 Q1015 TEMPO 23020G30KT 3000 SHRA

EXPIRED METARs :
  • 281100Z AUTO 22011KT 190V270 7000 RA BKN022/// BKN042/// BKN058/// ///CB 14/11 Q1016 TEMPO 23020G30KT 3000 SHRA
  • 281030Z AUTO 22013KT 200V260 9999 FEW021/// SCT074/// BKN096/// ///TCU 15/11 Q1015 TEMPO 23020G30KT 3000 SHRA BKN030TCU SCT040CB
  • 281000Z AUTO 22010KT 190V250 9999 FEW026/// OVC064/// ///CB 14/10 Q1015 TEMPO 23020G30KT 3000 SHRA
  • 280930Z AUTO 22014KT 200V260 9999 FEW024/// SCT044/// BKN056/// ///TCU 14/10 Q1015 TEMPO 23020G30KT 3000 SHRA BKN030TCU SCT040CB
  • 280900Z AUTO 21008KT 170V250 9999 FEW033/// BKN047/// BKN060/// ///TCU 14/11 Q1014 TEMPO 23015G25KT 4500 -SHRA

TAF AMD TAF LFRI
Valid from the 28 at 10:00 until the 29 at 06:00 UTC


281018Z 2810/2906 21008KT 9999 SCT030
TEMPO 2810/2902 23015G25KT 4500 -SHRA BKN030TCU SCT035CB
PROB40
TEMPO 2811/2817 23020G30KT 3000 SHRA BKN030TCU SCT040CB



MET'MAP, your aeronautical weather chart ! - Copyright ORBIFLY December 2007 - Disclaimer

ORBIFLY MET'MAP TEAM :

Programming & Development : Alexandra Zaïnal
Concept & original design : Baudouin d'Aumeries
Assistance for programming : Marc-Olivier Méhu
Technical & hardware support : Manuel Goepfert

Contact : metmap@orbifly.com




SOURCES & CREDITS :

   NOAA